createdAt,value
2022-08-17T00:02:16.363Z,10.20
2022-08-17T00:07:27.417Z,12.00
2022-08-17T00:12:43.682Z,10.77
2022-08-17T00:17:48.044Z,12.80
2022-08-17T00:22:50.057Z,12.77
2022-08-17T00:27:51.956Z,11.57
2022-08-17T00:33:12.249Z,11.77
2022-08-17T00:38:17.877Z,11.80
2022-08-17T00:43:33.520Z,13.63
2022-08-17T00:48:35.289Z,12.23
2022-08-17T00:53:56.263Z,12.67
2022-08-17T00:58:57.949Z,11.77
2022-08-17T01:04:00.047Z,12.20
2022-08-17T01:09:02.053Z,12.27
2022-08-17T01:14:03.781Z,12.73
2022-08-17T01:19:09.279Z,13.97
2022-08-17T01:24:10.949Z,12.83
2022-08-17T01:29:12.714Z,12.70
2022-08-17T01:34:15.167Z,14.83
2022-08-17T01:39:50.355Z,14.60
2022-08-17T01:44:55.197Z,14.87
2022-08-17T01:49:56.885Z,12.83
2022-08-17T01:54:58.534Z,13.70
2022-08-17T02:00:00.469Z,14.50
2022-08-17T02:05:02.165Z,12.90
2022-08-17T02:10:05.485Z,13.13
2022-08-17T02:15:21.597Z,12.63
2022-08-17T02:20:41.778Z,13.10
2022-08-17T02:25:44.843Z,13.27
2022-08-17T02:31:00.992Z,16.70
2022-08-17T02:36:04.965Z,12.90
2022-08-17T02:41:06.761Z,13.00
2022-08-17T02:46:08.471Z,12.60
2022-08-17T02:51:10.161Z,12.50
2022-08-17T02:56:11.831Z,12.53
2022-08-17T03:01:13.649Z,12.73
2022-08-17T03:06:16.664Z,12.97
2022-08-17T03:11:18.337Z,12.67
2022-08-17T03:16:20.005Z,13.63
2022-08-17T03:21:21.670Z,13.03
2022-08-17T03:26:23.332Z,12.20
2022-08-17T03:31:24.997Z,13.23
2022-08-17T03:36:26.708Z,13.50
2022-08-17T03:41:28.413Z,12.77
2022-08-17T03:46:48.610Z,12.60
2022-08-17T03:52:09.127Z,11.40
2022-08-17T03:57:11.025Z,12.07
2022-08-17T04:02:26.869Z,11.43
2022-08-17T04:07:29.776Z,12.60
2022-08-17T04:12:42.351Z,13.30
2022-08-17T04:17:44.285Z,13.77
2022-08-17T04:22:59.544Z,11.33
2022-08-17T04:28:01.464Z,14.00
2022-08-17T04:33:08.666Z,13.77
2022-08-17T04:38:12.656Z,12.27
2022-08-17T04:43:17.562Z,13.20
2022-08-17T04:48:20.798Z,18.80
2022-08-17T04:53:22.462Z,16.10
2022-08-17T04:58:24.243Z,15.60
2022-08-17T05:03:25.931Z,18.40
2022-08-17T05:08:27.683Z,15.80
2022-08-17T05:13:29.756Z,18.80
2022-08-17T05:18:31.502Z,18.97
2022-08-17T05:23:42.078Z,18.30
2022-08-17T05:28:45.079Z,17.40
2022-08-17T05:33:47.735Z,19.63
2022-08-17T05:38:50.557Z,17.20
2022-08-17T05:43:56.197Z,16.00
2022-08-17T05:49:01.605Z,17.33
2022-08-17T05:54:13.168Z,17.07
2022-08-17T05:59:23.772Z,17.33
2022-08-17T06:04:47.973Z,17.70
2022-08-17T06:10:07.801Z,24.30
2022-08-17T06:15:24.855Z,17.27
2022-08-17T06:20:31.966Z,19.90
2022-08-17T06:25:39.036Z,19.60
2022-08-17T06:30:59.633Z,18.70
2022-08-17T06:36:09.667Z,19.00
2022-08-17T06:41:42.882Z,19.27
2022-08-17T06:46:48.531Z,17.47
2022-08-17T06:51:52.054Z,16.77
2022-08-17T06:57:18.866Z,17.03
2022-08-17T07:02:52.332Z,17.70
2022-08-17T07:08:01.736Z,22.77
2022-08-17T07:13:15.206Z,21.77
2022-08-17T07:18:16.868Z,16.90
2022-08-17T07:23:23.029Z,19.80
2022-08-17T07:28:34.920Z,20.27
2022-08-17T07:33:36.829Z,16.33
2022-08-17T07:38:54.762Z,16.70
2022-08-17T07:43:56.449Z,21.40
2022-08-17T07:49:03.050Z,14.80
2022-08-17T07:54:29.482Z,18.27
2022-08-17T07:59:35.645Z,15.03
2022-08-17T08:04:59.730Z,12.30
2022-08-17T08:10:14.061Z,12.90
2022-08-17T08:15:21.803Z,16.90
2022-08-17T08:20:52.306Z,11.90
2022-08-17T08:26:29.567Z,17.00
2022-08-17T08:31:57.574Z,12.53
2022-08-17T08:37:32.732Z,12.47
2022-08-17T08:42:42.802Z,14.57
2022-08-17T08:47:53.713Z,9.07
2022-08-17T08:53:21.268Z,11.83
2022-08-17T08:58:49.125Z,16.40
2022-08-17T09:04:25.011Z,12.83
2022-08-17T09:09:55.127Z,9.70
2022-08-17T09:15:12.727Z,12.17
2022-08-17T09:20:35.527Z,12.97
2022-08-17T09:25:55.256Z,8.73
2022-08-17T09:31:02.925Z,8.00
2022-08-17T09:36:08.383Z,7.90
2022-08-17T09:41:17.601Z,11.57
2022-08-17T09:46:25.714Z,10.67
2022-08-17T09:51:40.098Z,8.60
2022-08-17T09:57:05.904Z,8.53
2022-08-17T10:02:45.714Z,7.40
2022-08-17T10:08:11.185Z,6.03
2022-08-17T10:13:27.933Z,6.10
2022-08-17T10:18:37.631Z,6.83
2022-08-17T10:23:57.632Z,9.13
2022-08-17T10:29:06.620Z,9.13
2022-08-17T10:34:46.084Z,7.67
2022-08-17T10:40:18.066Z,13.40
2022-08-17T10:45:23.402Z,6.57
2022-08-17T10:50:55.596Z,7.60
2022-08-17T10:56:18.006Z,10.93
2022-08-17T11:01:29.347Z,4.83
2022-08-17T11:06:37.195Z,12.30
2022-08-17T11:11:47.667Z,8.93
2022-08-17T11:17:08.012Z,8.70
2022-08-17T11:22:31.298Z,6.80
2022-08-17T11:27:35.293Z,8.20
2022-08-17T11:32:47.802Z,8.17
2022-08-17T11:38:18.377Z,9.20
2022-08-17T11:43:48.404Z,7.13
2022-08-17T11:49:11.841Z,6.80
2022-08-17T11:54:33.231Z,6.95
2022-08-17T11:59:45.780Z,9.82
2022-08-17T12:05:12.814Z,9.80
2022-08-17T12:10:17.180Z,9.45
2022-08-17T12:15:21.960Z,10.13
2022-08-17T12:20:34.992Z,4.95
2022-08-17T12:25:36.501Z,3.95
2022-08-17T12:30:38.391Z,4.88
2022-08-17T12:35:40.137Z,10.23
2022-08-17T12:40:53.286Z,12.70
2022-08-17T12:45:57.221Z,7.53
2022-08-17T12:51:00.479Z,4.60
2022-08-17T12:56:02.429Z,6.50
2022-08-17T13:01:09.488Z,10.00
2022-08-17T13:06:14.247Z,10.30
2022-08-17T13:11:18.472Z,5.05
2022-08-17T13:16:27.895Z,8.73
2022-08-17T13:21:30.580Z,7.10
2022-08-17T13:26:38.408Z,7.35
2022-08-17T13:31:49.792Z,5.00
2022-08-17T13:37:29.820Z,3.60
2022-08-17T13:42:50.571Z,3.80
2022-08-17T13:48:13.502Z,10.80
2022-08-17T13:53:17.670Z,8.43
2022-08-17T13:58:27.550Z,3.60
2022-08-17T14:03:29.228Z,6.95
2022-08-17T14:08:30.927Z,16.23
2022-08-17T14:13:32.579Z,8.38
2022-08-17T14:18:55.762Z,6.35
2022-08-17T14:23:55.876Z,6.40
2022-08-17T14:28:57.540Z,5.35
2022-08-17T14:33:59.769Z,5.78
2022-08-17T14:39:01.420Z,4.63
2022-08-17T14:44:04.240Z,5.55
2022-08-17T14:49:05.972Z,5.43
2022-08-17T14:54:07.779Z,7.67
2022-08-17T14:59:09.424Z,5.80
2022-08-17T15:04:14.818Z,5.90
2022-08-17T15:09:16.897Z,7.10
2022-08-17T15:14:19.194Z,5.80
2022-08-17T15:19:20.850Z,8.43
2022-08-17T15:24:22.499Z,10.50
2022-08-17T15:29:24.147Z,23.93
2022-08-17T15:34:25.792Z,8.70
2022-08-17T15:39:27.473Z,8.67
2022-08-17T15:44:32.509Z,10.50
2022-08-17T15:49:39.177Z,5.23
2022-08-17T15:54:40.840Z,8.00
2022-08-17T15:59:47.356Z,9.40
2022-08-17T16:05:03.303Z,11.03
2022-08-17T16:10:06.635Z,7.50
2022-08-17T16:15:08.845Z,6.33
2022-08-17T16:20:20.069Z,6.70
2022-08-17T16:25:38.830Z,7.30
2022-08-17T16:30:47.823Z,5.10
2022-08-17T16:35:49.492Z,8.67
2022-08-17T16:40:51.161Z,11.23
2022-08-17T16:45:52.839Z,13.93
2022-08-17T16:51:03.126Z,12.70
2022-08-17T16:56:07.359Z,14.73
2022-08-17T17:01:09.043Z,14.60
2022-08-17T17:06:18.599Z,14.47
2022-08-17T17:11:26.844Z,15.63
2022-08-17T17:16:28.517Z,12.30
2022-08-17T17:21:37.746Z,23.70
2022-08-17T17:26:48.380Z,14.07
2022-08-17T17:32:05.795Z,11.10
2022-08-17T17:37:10.737Z,11.63
2022-08-17T17:42:20.244Z,16.03
2022-08-17T17:47:22.131Z,13.30
2022-08-17T17:52:36.030Z,11.10
2022-08-17T17:58:00.877Z,12.40
2022-08-17T18:03:08.213Z,11.33
2022-08-17T18:08:32.184Z,11.63
2022-08-17T18:14:23.318Z,18.60
2022-08-17T18:19:26.246Z,11.30
2022-08-17T18:24:42.033Z,15.23
2022-08-17T18:29:44.646Z,11.90
2022-08-17T18:34:48.734Z,15.40
2022-08-17T18:39:50.687Z,22.40
2022-08-17T18:44:55.174Z,14.50
2022-08-17T18:50:00.436Z,15.00
2022-08-17T18:55:22.661Z,18.47
2022-08-17T19:00:37.112Z,14.37
2022-08-17T19:05:40.512Z,15.70
2022-08-17T19:10:46.261Z,13.40
2022-08-17T19:16:14.891Z,15.40
2022-08-17T19:21:29.477Z,16.60
2022-08-17T19:26:54.549Z,16.30
2022-08-17T19:31:58.689Z,16.13
2022-08-17T19:37:06.888Z,15.40
2022-08-17T19:42:24.983Z,26.93
2022-08-17T19:47:54.248Z,19.90
2022-08-17T19:53:17.519Z,15.70
2022-08-17T19:58:44.947Z,15.07
2022-08-17T20:03:52.965Z,23.10
2022-08-17T20:09:24.496Z,20.93
2022-08-17T20:14:39.495Z,13.80
2022-08-17T20:20:03.984Z,17.90
2022-08-17T20:25:13.823Z,13.77
2022-08-17T20:30:34.035Z,14.23
2022-08-17T20:35:38.700Z,14.60
2022-08-17T20:41:00.953Z,15.10
2022-08-17T20:46:17.868Z,15.57
2022-08-17T20:51:31.462Z,16.07
2022-08-17T20:56:46.338Z,14.33
2022-08-17T21:02:18.283Z,13.57
2022-08-17T21:07:42.613Z,14.83
2022-08-17T21:12:49.942Z,14.47
2022-08-17T21:18:03.450Z,13.67
2022-08-17T21:23:40.292Z,13.80
2022-08-17T21:29:00.794Z,15.07
2022-08-17T21:34:15.126Z,15.03
2022-08-17T21:39:21.444Z,17.43
2022-08-17T21:44:33.832Z,15.10
2022-08-17T21:49:37.996Z,14.63
2022-08-17T21:54:42.497Z,15.20
2022-08-17T21:59:44.262Z,16.80
2022-08-17T22:04:56.883Z,17.20
2022-08-17T22:09:58.816Z,16.97
2022-08-17T22:15:02.304Z,16.33
2022-08-17T22:20:17.246Z,25.23
2022-08-17T22:25:22.418Z,15.90
2022-08-17T22:30:37.936Z,20.70
2022-08-17T22:35:43.150Z,32.27
2022-08-17T22:40:55.825Z,22.37
2022-08-17T22:45:58.656Z,17.97
2022-08-17T22:51:12.874Z,18.20
2022-08-17T22:56:36.265Z,19.50
2022-08-17T23:01:39.063Z,19.60
2022-08-17T23:06:43.787Z,23.33
2022-08-17T23:11:50.037Z,19.27
2022-08-17T23:16:52.083Z,21.07
2022-08-17T23:21:56.706Z,21.27
2022-08-17T23:26:58.931Z,20.70
2022-08-17T23:32:01.274Z,20.33
2022-08-17T23:37:04.310Z,21.80
2022-08-17T23:42:08.058Z,20.40
2022-08-17T23:47:10.419Z,20.70
2022-08-17T23:52:15.296Z,19.40
2022-08-17T23:57:19.364Z,18.93
